NAS Brunswick, Maine
Current Conditions -  °F | °C
As of 2:53 AM on Thursday 27 Nov 2014 (Local Time) from KIWI Reporting Station
Light Snow Light Snow  
Wind Chill: 26°   Ceiling: 1000
Heat Index: 31°   Visibility: 1mi
Dew Point: 29°   Wind: 5mph
Humidity: 92%   Direction: NA
Pressure: 29.7"   Gusts: 20mph
Location:  43.903°N, 69.9809°W
Report Text: KIWI 270753Z AUTO VRB04G17KT 1SM -SN BR VV010 M01/M02 A2970 RMK AO2 SLP059 P0004 T10061017
Loading
Personal Weather Stations






























Interactive Weather Map New forecast layout! Learn more

10-Day Weather Forecast

Advertisements
Track Severe Weather on mobile